Killeen, TX

4:17 AM CDT on August 21, 2017 (GMT -0500)
Skylark Field

Weather History for KILE - March, 2013

Change the Weather History Date:

Thursday, March 21, 2013

  Actual Average Record
Temperature  
Mean Temperature 62 °F -  
Max Temperature 75 °F 67 °F 87 °F (1997)
Min Temperature 48 °F 48 °F 35 °F (2016)
Degree Days  
Heating Degree Days 4    
Growing Degree Days 12 (Base 50)    
Moisture  
Dew Point 48 °F    
Average Humidity 59    
Maximum Humidity 77    
Minimum Humidity 47    
Precipitation  
Precipitation 0.00 in - - ()
Sea Level Pressure  
Sea Level Pressure 29.77 in    
Wind  
Wind Speed 10 mph (SSE)    
Max Wind Speed 24 mph    
Max Gust Speed 34 mph    
Visibility 10 miles    
Events      
Averages and records for this station are not official NWS values.
T = Trace of Precipitation, MM = Missing Value Source: NWS Daily Summary

Daily Weather History Graph

Daily Weather History Graph

Search for Another Location

Airport or City:

Trip Planner

Search our weather history database for the weather conditions in past years. The results will help you decide how hot, cold, wet, or windy it might be!

Date:

Astronomy

Mar. 21, 2013 Rise Set
Actual Time 7:32 AM CDT 7:43 PM CDT
Civil Twilight 7:08 AM CDT 8:07 PM CDT
Nautical Twilight 6:40 AM CDT 8:35 PM CDT
Astronomical Twilight 6:12 AM CDT 9:03 PM CDT
Moon 2:32 PM CDT 3:36 AM CDT
Length of Visible Light 12h 58m
Length of Day
12h 10m
Waxing Gibbous, 69% of the Moon is Illuminated
Mar 21
Waxing Gibbous
Mar 27
Full
Apr 2
Last Quarter
Apr 10
New
Apr 18
First Quarter

Hourly Weather History & Observations

Time (CDT) Temp. Dew Point Humidity Pressure Visibility Wind Dir Wind Speed Gust Speed Precip Events Conditions
12:15 AM 53.6 °F 37.4 °F 54% 30.02 in 10.0 mi East 3.5 mph - N/A   Clear
12:35 AM 51.8 °F 37.4 °F 58% 30.02 in 10.0 mi Calm Calm - N/A   Clear
1:15 AM 48.2 °F 37.4 °F 66% 30.01 in 10.0 mi Calm Calm - N/A   Clear
1:35 AM 50.0 °F 37.4 °F 62% 29.99 in 10.0 mi East 4.6 mph - N/A   Clear
1:55 AM 51.8 °F 35.6 °F 54% 29.99 in 10.0 mi East 3.5 mph - N/A   Clear
2:15 AM 53.6 °F 33.8 °F 47% 29.98 in 10.0 mi ESE 5.8 mph - N/A   Scattered Clouds
2:35 AM 53.6 °F 33.8 °F 47% 29.97 in 10.0 mi ESE 5.8 mph - N/A   Scattered Clouds
2:55 AM 53.6 °F 33.8 °F 47% 29.97 in 10.0 mi ESE 4.6 mph - N/A   Scattered Clouds
3:15 AM 53.6 °F 35.6 °F 51% 29.96 in 10.0 mi SE 6.9 mph - N/A   Mostly Cloudy
3:35 AM 53.6 °F 35.6 °F 51% 29.95 in 10.0 mi SSE 4.6 mph - N/A   Mostly Cloudy
3:55 AM 53.6 °F 37.4 °F 54% 29.93 in 10.0 mi SE 4.6 mph - N/A   Overcast
4:15 AM 53.6 °F 37.4 °F 54% 29.92 in 10.0 mi SE 6.9 mph - N/A   Overcast
4:35 AM 53.6 °F 35.6 °F 51% 29.91 in 10.0 mi SE 5.8 mph - N/A   Overcast
4:55 AM 53.6 °F 37.4 °F 54% 29.90 in 10.0 mi SSE 5.8 mph - N/A   Overcast
5:15 AM 55.4 °F 37.4 °F 51% 29.90 in 10.0 mi SSE 5.8 mph - N/A   Overcast
5:35 AM 55.4 °F 37.4 °F 51% 29.89 in 10.0 mi SSE 8.1 mph - N/A   Overcast
5:55 AM 55.4 °F 37.4 °F 51% 29.89 in 10.0 mi South 6.9 mph - N/A   Overcast
6:15 AM 53.6 °F 39.2 °F 58% 29.88 in 10.0 mi South 6.9 mph - N/A   Overcast
6:35 AM 53.6 °F 41.0 °F 62% 29.88 in 10.0 mi South 8.1 mph - N/A   Mostly Cloudy
6:55 AM 53.6 °F 41.0 °F 62% 29.88 in 10.0 mi South 8.1 mph - N/A   Mostly Cloudy
7:15 AM 53.6 °F 42.8 °F 67% 29.87 in 10.0 mi South 8.1 mph - N/A   Partly Cloudy
7:55 AM 53.6 °F 42.8 °F 67% 29.88 in 10.0 mi SSE 8.1 mph - N/A   Clear
8:15 AM 53.6 °F 42.8 °F 67% 29.88 in 10.0 mi SSE 9.2 mph - N/A   Clear
8:35 AM 53.6 °F 44.6 °F 72% 29.87 in 10.0 mi SSE 9.2 mph - N/A   Partly Cloudy
8:55 AM 55.4 °F 44.6 °F 67% 29.89 in 10.0 mi SE 10.4 mph - N/A   Clear
9:15 AM 55.4 °F 46.4 °F 72% 29.88 in 10.0 mi SSE 10.4 mph - N/A   Clear
9:35 AM 57.2 °F 46.4 °F 67% 29.87 in 10.0 mi SE 12.7 mph - N/A   Clear
9:55 AM 60.8 °F 48.2 °F 63% 29.87 in 10.0 mi South 15.0 mph 23.0 mph N/A   Clear
10:15 AM 62.6 °F 48.2 °F 59% 29.87 in 10.0 mi South 21.9 mph 25.3 mph N/A   Clear
10:35 AM 64.4 °F 48.2 °F 56% 29.85 in 10.0 mi SSE 24.2 mph 34.5 mph N/A   Clear
10:55 AM 66.2 °F 50.0 °F 56% 29.84 in 10.0 mi SSE 19.6 mph 29.9 mph N/A   Partly Cloudy
11:35 AM 64.4 °F 51.8 °F 64% 29.83 in 10.0 mi South 21.9 mph 31.1 mph N/A   Overcast
11:55 AM 64.4 °F 51.8 °F 64% 29.82 in 10.0 mi South 24.2 mph 31.1 mph N/A   Overcast
12:15 PM 66.2 °F 53.6 °F 64% 29.79 in 10.0 mi South 19.6 mph 26.5 mph N/A   Overcast
12:35 PM 68.0 °F 53.6 °F 60% 29.78 in 10.0 mi South 23.0 mph 32.2 mph N/A   Mostly Cloudy
12:55 PM 68.0 °F 53.6 °F 60% 29.77 in 10.0 mi South 19.6 mph 26.5 mph N/A   Overcast
1:15 PM 69.8 °F 53.6 °F 56% 29.75 in 10.0 mi South 20.7 mph 31.1 mph N/A   Mostly Cloudy
1:35 PM 69.8 °F 53.6 °F 56% 29.74 in 10.0 mi South 18.4 mph 26.5 mph N/A   Overcast
1:55 PM 69.8 °F 53.6 °F 56% 29.72 in 10.0 mi South 21.9 mph 29.9 mph N/A   Overcast
2:15 PM 69.8 °F 53.6 °F 56% 29.71 in 10.0 mi SSE 18.4 mph 27.6 mph N/A   Overcast
2:35 PM 69.8 °F 53.6 °F 56% 29.70 in 10.0 mi SSE 16.1 mph 20.7 mph N/A   Overcast
2:55 PM 71.6 °F 53.6 °F 53% 29.68 in 10.0 mi South 23.0 mph 28.8 mph N/A   Overcast
3:15 PM 71.6 °F 53.6 °F 53% 29.66 in 10.0 mi South 15.0 mph 23.0 mph N/A   Overcast
3:35 PM 71.6 °F 55.4 °F 57% 29.65 in 10.0 mi South 15.0 mph 25.3 mph N/A   Overcast
3:55 PM 73.4 °F 55.4 °F 53% 29.65 in 10.0 mi SSE 19.6 mph 27.6 mph N/A   Overcast
4:15 PM 73.4 °F 55.4 °F 53% 29.64 in 10.0 mi South 16.1 mph 25.3 mph N/A   Overcast
4:35 PM 73.4 °F 55.4 °F 53% 29.63 in 10.0 mi South 19.6 mph 25.3 mph N/A   Overcast
4:55 PM 73.4 °F 55.4 °F 53% 29.61 in 10.0 mi South 15.0 mph 25.3 mph N/A   Overcast
5:15 PM 75.2 °F 55.4 °F 50% 29.60 in 10.0 mi South 21.9 mph 27.6 mph N/A   Mostly Cloudy
5:35 PM 73.4 °F 55.4 °F 53% 29.59 in 10.0 mi South 20.7 mph 29.9 mph N/A   Mostly Cloudy
5:55 PM 73.4 °F 55.4 °F 53% 29.58 in 10.0 mi SSE 18.4 mph 25.3 mph N/A   Overcast
6:15 PM 73.4 °F 55.4 °F 53% 29.59 in 10.0 mi South 17.3 mph 20.7 mph N/A   Mostly Cloudy
6:35 PM 73.4 °F 55.4 °F 53% 29.59 in 10.0 mi South 17.3 mph 25.3 mph N/A   Partly Cloudy
6:55 PM 71.6 °F 55.4 °F 57% 29.60 in 10.0 mi South 15.0 mph 20.7 mph N/A   Clear
7:15 PM 73.4 °F 55.4 °F 53% 29.60 in 10.0 mi South 15.0 mph 21.9 mph N/A   Mostly Cloudy
7:35 PM 71.6 °F 55.4 °F 57% 29.60 in 10.0 mi South 12.7 mph - N/A   Mostly Cloudy
7:55 PM 71.6 °F 55.4 °F 57% 29.60 in 10.0 mi South 12.7 mph - N/A   Scattered Clouds
8:15 PM 69.8 °F 55.4 °F 60% 29.59 in 10.0 mi South 9.2 mph - N/A   Clear
8:35 PM 69.8 °F 55.4 °F 60% 29.61 in 10.0 mi South 10.4 mph - N/A   Clear
8:55 PM 68.0 °F 55.4 °F 64% 29.61 in 10.0 mi SSE 10.4 mph - N/A   Clear
9:15 PM 68.0 °F 55.4 °F 64% 29.61 in 10.0 mi SSE 11.5 mph - N/A   Clear
9:35 PM 66.2 °F 55.4 °F 68% 29.61 in 10.0 mi SSE 11.5 mph - N/A   Clear
9:55 PM 66.2 °F 57.2 °F 73% 29.61 in 10.0 mi SSE 11.5 mph - N/A   Clear
10:15 PM 66.2 °F 55.4 °F 68% 29.61 in 10.0 mi SSE 10.4 mph - N/A   Clear
10:35 PM 66.2 °F 57.2 °F 73% 29.61 in 10.0 mi SSE 11.5 mph 17.3 mph N/A   Clear
10:55 PM 66.2 °F 57.2 °F 73% 29.63 in 10.0 mi SSE 13.8 mph - N/A   Clear
11:15 PM 64.4 °F 57.2 °F 77% 29.64 in 10.0 mi SSE 12.7 mph - N/A   Clear
11:35 PM 64.4 °F 57.2 °F 77% 29.62 in 10.0 mi South 13.8 mph 20.7 mph N/A   Clear
11:55 PM 64.4 °F 57.2 °F 77% 29.62 in 10.0 mi SSE 11.5 mph - N/A   Clear